Time;durP1;ratioP1;P1;durP2;ratioP2;P2;SDS_P1;SDS_P2;PMS_P1;PMS_P2;Temp;Humidity;BMP_temperature;BMP_pressure;BME280_temperature;BME280_humidity;BME280_pressure;Samples;Min_cycle;Max_cycle;Signal;HPM_P1;HPM_P2
2024/01/16 00:00:08;;;;;;;5.63;1.83;;;;;;;;;;5057630;28;20056;-83
2024/01/16 00:02:35;;;;;;;7.38;1.63;;;;;;;;;;5043467;28;20044;-84
2024/01/16 00:05:01;;;;;;;4.95;1.45;;;;;;;;;;5036681;28;20037;-84
2024/01/16 00:07:27;;;;;;;4.53;1.45;;;;;;;;;;5034365;28;20499;-83
2024/01/16 00:09:53;;;;;;;12.05;1.98;;;;;;;;;;5017184;28;20041;-83
2024/01/16 00:12:20;;;;;;;4.93;1.30;;;;;;;;;;5016339;28;20094;-85
2024/01/16 00:14:46;;;;;;;9.43;1.40;;;;;;;;;;5040101;28;20144;-83
2024/01/16 00:17:12;;;;;;;7.75;1.50;;;;;;;;;;5033619;28;20135;-84
2024/01/16 00:19:38;;;;;;;5.60;1.27;;;;;;;;;;5054937;28;20115;-83
2024/01/16 00:22:04;;;;;;;5.95;1.50;;;;;;;;;;5042484;28;20074;-89
2024/01/16 00:24:30;;;;;;;6.95;1.33;;;;;;;;;;5033469;28;20041;-83
2024/01/16 00:26:57;;;;;;;7.55;2.58;;;;;;;;;;5048916;28;20072;-84
2024/01/16 00:29:23;;;;;;;5.10;1.90;;;;;;;;;;5035361;28;20037;-86
2024/01/16 00:31:49;;;;;;;2.70;0.85;;;;;;;;;;5026869;28;20044;-84
2024/01/16 00:34:15;;;;;;;3.63;1.23;;;;;;;;;;5026863;28;20083;-84
2024/01/16 00:36:41;;;;;;;5.10;1.27;;;;;;;;;;5058787;28;20060;-83
2024/01/16 00:39:08;;;;;;;4.45;1.38;;;;;;;;;;5038236;28;20056;-83
2024/01/16 00:41:34;;;;;;;4.53;1.35;;;;;;;;;;5033700;28;20964;-85
2024/01/16 00:44:00;;;;;;;6.30;1.58;;;;;;;;;;5034159;28;20037;-85
2024/01/16 00:46:26;;;;;;;2.97;0.93;;;;;;;;;;5041402;28;20071;-84
2024/01/16 00:48:52;;;;;;;3.17;1.02;;;;;;;;;;5029574;28;20804;-84
2024/01/16 00:51:18;;;;;;;4.85;1.33;;;;;;;;;;5026886;28;20041;-85
2024/01/16 00:53:44;;;;;;;3.03;1.42;;;;;;;;;;5027689;28;20569;-83
2024/01/16 00:56:15;;;;;;;5.07;1.17;;;;;;;;;;5040747;28;20069;-84
2024/01/16 00:58:41;;;;;;;3.42;1.02;;;;;;;;;;5043437;28;20074;-87
2024/01/16 01:01:07;;;;;;;6.43;0.90;;;;;;;;;;5026585;28;20037;-84
2024/01/16 01:03:33;;;;;;;3.10;1.17;;;;;;;;;;5043291;28;20383;-85
2024/01/16 01:06:00;;;;;;;2.85;1.13;;;;;;;;;;5038627;28;20050;-84
2024/01/16 01:08:27;;;;;;;6.70;1.40;;;;;;;;;;5037919;28;20079;-84
2024/01/16 01:10:53;;;;;;;6.93;1.48;;;;;;;;;;5039039;28;20047;-85
2024/01/16 01:13:19;;;;;;;7.63;1.70;;;;;;;;;;5028404;28;20045;-84
2024/01/16 01:15:45;;;;;;;2.08;0.95;;;;;;;;;;5026305;28;20095;-86
2024/01/16 01:18:11;;;;;;;1.23;1.10;;;;;;;;;;5049135;28;20089;-84
2024/01/16 01:20:37;;;;;;;4.63;1.42;;;;;;;;;;5037972;28;20510;-84
2024/01/16 01:23:03;;;;;;;5.10;1.45;;;;;;;;;;5039980;28;20533;-86
2024/01/16 01:25:29;;;;;;;3.55;1.20;;;;;;;;;;5028658;28;20041;-84
2024/01/16 01:27:55;;;;;;;7.50;1.27;;;;;;;;;;5028534;28;20051;-84
2024/01/16 01:30:21;;;;;;;5.15;1.40;;;;;;;;;;5056900;28;20041;-84
2024/01/16 01:32:47;;;;;;;6.38;1.30;;;;;;;;;;5036213;28;20040;-83
2024/01/16 01:35:14;;;;;;;2.53;1.40;;;;;;;;;;5056211;28;20037;-83
2024/01/16 01:37:40;;;;;;;4.38;1.75;;;;;;;;;;5034840;28;20053;-87
2024/01/16 01:40:06;;;;;;;2.70;1.23;;;;;;;;;;5024886;28;20072;-83
2024/01/16 01:42:32;;;;;;;6.60;1.55;;;;;;;;;;5029798;28;20524;-83
2024/01/16 01:44:58;;;;;;;7.13;1.58;;;;;;;;;;5032913;28;20036;-84
2024/01/16 01:47:25;;;;;;;6.57;1.38;;;;;;;;;;5026875;28;20064;-83
2024/01/16 01:49:51;;;;;;;7.38;1.70;;;;;;;;;;5030120;28;20048;-87
2024/01/16 01:52:17;;;;;;;1.92;1.13;;;;;;;;;;5052072;28;20055;-85
2024/01/16 01:54:44;;;;;;;7.65;1.98;;;;;;;;;;5040175;28;20573;-85
2024/01/16 01:57:10;;;;;;;4.97;1.17;;;;;;;;;;5022653;28;20204;-83
2024/01/16 01:59:36;;;;;;;7.40;1.40;;;;;;;;;;5041786;28;20051;-86
2024/01/16 02:02:04;;;;;;;9.45;1.80;;;;;;;;;;5039214;28;20056;-83
2024/01/16 02:04:32;;;;;;;5.18;1.63;;;;;;;;;;5037295;28;20045;-84
2024/01/16 02:06:58;;;;;;;4.45;1.30;;;;;;;;;;5045869;28;20052;-85
2024/01/16 02:09:24;;;;;;;3.28;1.23;;;;;;;;;;5039729;28;20627;-85
2024/01/16 02:11:50;;;;;;;2.05;1.42;;;;;;;;;;5049055;28;20780;-83
2024/01/16 02:14:16;;;;;;;5.25;1.60;;;;;;;;;;5035980;28;20041;-86
2024/01/16 02:16:44;;;;;;;3.70;1.23;;;;;;;;;;5026856;28;20064;-85
2024/01/16 02:19:11;;;;;;;5.43;1.30;;;;;;;;;;5009111;28;20847;-83
2024/01/16 02:21:49;;;;;;;4.47;1.55;;;;;;;;;;5009037;28;20499;-86
2024/01/16 02:24:16;;;;;;;5.05;1.15;;;;;;;;;;5009341;28;20865;-83
2024/01/16 02:26:43;;;;;;;2.78;1.10;;;;;;;;;;5009313;28;20534;-84
2024/01/16 02:29:09;;;;;;;6.65;1.38;;;;;;;;;;5008709;28;20147;-83
2024/01/16 02:31:35;;;;;;;4.55;1.40;;;;;;;;;;5055837;28;20048;-83
2024/01/16 02:34:01;;;;;;;4.65;1.25;;;;;;;;;;5048598;28;20059;-87
2024/01/16 02:36:29;;;;;;;4.90;1.20;;;;;;;;;;5038162;28;20051;-83
2024/01/16 02:38:55;;;;;;;4.63;1.50;;;;;;;;;;5028606;28;20041;-85
2024/01/16 02:41:21;;;;;;;3.53;1.08;;;;;;;;;;5028878;28;20041;-83
2024/01/16 02:43:47;;;;;;;2.88;1.02;;;;;;;;;;5028498;28;20048;-85
2024/01/16 02:46:14;;;;;;;5.15;1.27;;;;;;;;;;5045109;28;20083;-85
2024/01/16 02:48:42;;;;;;;3.03;1.20;;;;;;;;;;5017785;28;20477;-85
2024/01/16 02:51:08;;;;;;;5.43;1.63;;;;;;;;;;5030566;28;20162;-84
2024/01/16 02:53:34;;;;;;;5.40;1.38;;;;;;;;;;5064810;28;20051;-83
2024/01/16 02:56:00;;;;;;;7.82;1.40;;;;;;;;;;5048144;28;20683;-84
2024/01/16 02:58:27;;;;;;;8.23;1.30;;;;;;;;;;5064154;28;20048;-83
2024/01/16 03:00:53;;;;;;;6.45;1.65;;;;;;;;;;5037786;28;20074;-85
2024/01/16 03:03:19;;;;;;;9.20;1.35;;;;;;;;;;5044854;28;20048;-86
2024/01/16 03:05:45;;;;;;;3.88;1.40;;;;;;;;;;5049322;28;20063;-84
2024/01/16 03:08:11;;;;;;;3.80;1.20;;;;;;;;;;5028293;28;20080;-83
2024/01/16 03:10:37;;;;;;;6.28;1.38;;;;;;;;;;5014683;28;20441;-83
2024/01/16 03:13:03;;;;;;;3.28;1.25;;;;;;;;;;5046558;28;20048;-83
2024/01/16 03:15:30;;;;;;;6.57;1.52;;;;;;;;;;5036245;28;20045;-83
2024/01/16 03:17:57;;;;;;;2.40;1.55;;;;;;;;;;5030892;28;20052;-83
2024/01/16 03:20:23;;;;;;;5.53;1.60;;;;;;;;;;5024281;28;20045;-83
2024/01/16 03:22:49;;;;;;;4.10;1.75;;;;;;;;;;5040789;28;20477;-84
2024/01/16 03:25:17;;;;;;;3.78;1.30;;;;;;;;;;5030667;28;20076;-83
2024/01/16 03:27:44;;;;;;;6.55;1.48;;;;;;;;;;5040513;28;20041;-83
2024/01/16 03:30:10;;;;;;;2.85;1.50;;;;;;;;;;5047667;28;20045;-83
2024/01/16 03:32:36;;;;;;;3.00;1.13;;;;;;;;;;5035567;28;20447;-84
2024/01/16 03:35:02;;;;;;;4.20;1.65;;;;;;;;;;5031321;28;20048;-87
2024/01/16 03:37:28;;;;;;;7.28;1.40;;;;;;;;;;5026877;28;20060;-86
2024/01/16 03:39:54;;;;;;;4.00;1.33;;;;;;;;;;5045572;28;20497;-86
2024/01/16 03:42:21;;;;;;;4.20;1.17;;;;;;;;;;5059720;28;20086;-82
2024/01/16 03:44:47;;;;;;;9.93;2.42;;;;;;;;;;5031469;28;20041;-83
2024/01/16 03:47:13;;;;;;;6.57;1.52;;;;;;;;;;5034799;28;20040;-83
2024/01/16 03:49:39;;;;;;;5.97;1.40;;;;;;;;;;5034010;28;20114;-85
2024/01/16 03:52:05;;;;;;;10.35;1.85;;;;;;;;;;5061619;28;20044;-85
2024/01/16 03:54:31;;;;;;;8.15;1.73;;;;;;;;;;5036468;28;20102;-83
2024/01/16 03:56:57;;;;;;;8.63;1.73;;;;;;;;;;5045843;28;20131;-86
2024/01/16 03:59:23;;;;;;;7.95;1.70;;;;;;;;;;5043014;28;20044;-83
2024/01/16 04:01:49;;;;;;;3.92;1.58;;;;;;;;;;5049648;28;20121;-87
2024/01/16 04:04:15;;;;;;;8.13;1.50;;;;;;;;;;5042475;28;20067;-86
2024/01/16 04:06:42;;;;;;;6.43;1.55;;;;;;;;;;5057299;28;20502;-88
2024/01/16 04:09:09;;;;;;;3.28;1.30;;;;;;;;;;5035308;28;20087;-88
2024/01/16 04:11:35;;;;;;;4.38;1.52;;;;;;;;;;5025277;28;20040;-84
2024/01/16 04:14:01;;;;;;;5.53;1.30;;;;;;;;;;5063188;28;20044;-84
2024/01/16 04:16:27;;;;;;;8.35;1.83;;;;;;;;;;5063218;28;20409;-85
2024/01/16 04:18:54;;;;;;;4.40;1.70;;;;;;;;;;5063375;28;20052;-83
2024/01/16 04:21:20;;;;;;;11.30;1.40;;;;;;;;;;5046334;28;20044;-86
2024/01/16 04:23:46;;;;;;;8.30;1.70;;;;;;;;;;5045968;28;20129;-84
2024/01/16 04:26:12;;;;;;;7.22;1.75;;;;;;;;;;5045926;28;20048;-85
2024/01/16 04:28:38;;;;;;;3.38;1.42;;;;;;;;;;5035870;28;20048;-85
2024/01/16 04:31:04;;;;;;;9.10;1.65;;;;;;;;;;5007098;28;20041;-83
2024/01/16 04:33:30;;;;;;;7.57;2.20;;;;;;;;;;5023005;28;20140;-85
2024/01/16 04:35:57;;;;;;;7.35;1.50;;;;;;;;;;5023258;28;20072;-83
2024/01/16 04:38:23;;;;;;;6.90;1.42;;;;;;;;;;5046496;28;20056;-84
2024/01/16 04:40:49;;;;;;;3.97;1.10;;;;;;;;;;5052074;28;20056;-83
2024/01/16 04:43:15;;;;;;;12.07;1.70;;;;;;;;;;5024247;28;20045;-85
2024/01/16 04:45:41;;;;;;;5.38;1.33;;;;;;;;;;5016838;28;20507;-85
2024/01/16 04:48:10;;;;;;;6.18;1.73;;;;;;;;;;5041869;28;20040;-84
2024/01/16 04:50:36;;;;;;;4.43;1.38;;;;;;;;;;5026108;28;20048;-84
2024/01/16 04:53:03;;;;;;;4.43;1.23;;;;;;;;;;5057652;28;20066;-84
2024/01/16 04:55:29;;;;;;;7.72;1.70;;;;;;;;;;5037589;28;20045;-86
2024/01/16 04:57:56;;;;;;;5.78;2.00;;;;;;;;;;5052789;28;20059;-83
2024/01/16 05:00:22;;;;;;;6.28;1.85;;;;;;;;;;5044277;28;20098;-85
2024/01/16 05:02:48;;;;;;;6.53;1.58;;;;;;;;;;5045877;28;20559;-86
2024/01/16 05:05:14;;;;;;;8.60;1.63;;;;;;;;;;5035322;28;20036;-86
2024/01/16 05:07:41;;;;;;;7.47;1.70;;;;;;;;;;5021186;28;20064;-83
2024/01/16 05:10:07;;;;;;;7.53;1.08;;;;;;;;;;5017501;28;20041;-85
2024/01/16 05:12:33;;;;;;;13.20;2.60;;;;;;;;;;5042954;28;20049;-86
2024/01/16 05:14:59;;;;;;;3.53;1.20;;;;;;;;;;5051883;28;20044;-84
2024/01/16 05:17:25;;;;;;;7.80;1.80;;;;;;;;;;5031570;28;20044;-83
2024/01/16 05:19:51;;;;;;;6.43;1.80;;;;;;;;;;5054721;28;20056;-86
2024/01/16 05:22:17;;;;;;;7.15;1.80;;;;;;;;;;5028201;28;20041;-83
2024/01/16 05:24:43;;;;;;;6.03;1.80;;;;;;;;;;5031696;28;20056;-87
2024/01/16 05:27:10;;;;;;;3.22;1.35;;;;;;;;;;5046711;28;20080;-86
2024/01/16 05:29:37;;;;;;;7.15;1.70;;;;;;;;;;5056061;28;20083;-83
2024/01/16 05:32:03;;;;;;;11.65;1.75;;;;;;;;;;5039159;28;20052;-85
2024/01/16 05:34:30;;;;;;;4.13;1.33;;;;;;;;;;5034010;28;20105;-88
2024/01/16 05:36:56;;;;;;;5.78;1.50;;;;;;;;;;5029214;28;20057;-84
2024/01/16 05:39:22;;;;;;;4.70;1.27;;;;;;;;;;5029446;28;20052;-84
2024/01/16 05:41:48;;;;;;;4.57;1.20;;;;;;;;;;5035556;28;20040;-84
2024/01/16 05:44:15;;;;;;;4.35;1.30;;;;;;;;;;5024357;28;20037;-85
2024/01/16 05:46:41;;;;;;;6.43;1.40;;;;;;;;;;5030353;28;20473;-83
2024/01/16 05:49:07;;;;;;;3.97;1.17;;;;;;;;;;5029292;28;20043;-86
2024/01/16 05:51:33;;;;;;;3.30;1.55;;;;;;;;;;5032122;28;20665;-84
2024/01/16 05:53:59;;;;;;;5.25;1.30;;;;;;;;;;5038072;28;20052;-84
2024/01/16 05:56:25;;;;;;;8.38;1.48;;;;;;;;;;5028905;28;20041;-84
2024/01/16 05:58:52;;;;;;;9.68;1.67;;;;;;;;;;5034035;28;20409;-83
2024/01/16 06:01:18;;;;;;;2.88;1.20;;;;;;;;;;5048832;28;20062;-84
2024/01/16 06:03:46;;;;;;;7.53;1.40;;;;;;;;;;5048713;28;20079;-84
2024/01/16 06:06:12;;;;;;;2.58;1.17;;;;;;;;;;5034196;28;20045;-86
2024/01/16 06:08:38;;;;;;;6.05;1.38;;;;;;;;;;5025729;28;20768;-85
2024/01/16 06:11:04;;;;;;;7.15;1.50;;;;;;;;;;5009111;28;20045;-84
2024/01/16 06:13:31;;;;;;;4.78;1.60;;;;;;;;;;5008831;28;20128;-85
2024/01/16 06:15:58;;;;;;;5.15;1.40;;;;;;;;;;5025538;28;20045;-85
2024/01/16 06:18:24;;;;;;;6.82;1.38;;;;;;;;;;5009026;28;20051;-86
2024/01/16 06:20:50;;;;;;;5.35;1.48;;;;;;;;;;5008758;28;20041;-83
2024/01/16 06:23:16;;;;;;;3.78;2.55;;;;;;;;;;5009278;28;20061;-85
2024/01/16 06:25:42;;;;;;;5.05;1.33;;;;;;;;;;5008932;28;20037;-84
2024/01/16 06:28:08;;;;;;;12.00;1.30;;;;;;;;;;5008897;28;20072;-85
2024/01/16 06:30:34;;;;;;;6.95;1.30;;;;;;;;;;5008414;28;20144;-86
2024/01/16 06:33:00;;;;;;;6.63;1.25;;;;;;;;;;5008189;28;20081;-84
2024/01/16 06:35:26;;;;;;;8.20;1.45;;;;;;;;;;5009110;28;20056;-87
2024/01/16 06:37:52;;;;;;;6.20;1.90;;;;;;;;;;5008131;28;20069;-83
2024/01/16 06:40:18;;;;;;;6.38;2.08;;;;;;;;;;5008488;28;20419;-85
2024/01/16 06:42:44;;;;;;;12.65;1.88;;;;;;;;;;5007969;28;20045;-85
2024/01/16 06:45:12;;;;;;;3.97;1.02;;;;;;;;;;5013918;28;20047;-84
2024/01/16 06:47:39;;;;;;;6.50;1.80;;;;;;;;;;5027775;28;20040;-87
2024/01/16 06:50:05;;;;;;;5.00;1.98;;;;;;;;;;5027746;28;20044;-84
2024/01/16 06:52:31;;;;;;;2.90;1.30;;;;;;;;;;5027410;28;20056;-86
2024/01/16 06:54:57;;;;;;;8.32;1.20;;;;;;;;;;5064054;28;20044;-83
2024/01/16 06:57:23;;;;;;;7.72;1.20;;;;;;;;;;5038583;28;20049;-86
2024/01/16 06:59:49;;;;;;;6.13;1.67;;;;;;;;;;5038149;28;20040;-85
2024/01/16 07:02:15;;;;;;;3.80;1.15;;;;;;;;;;5047317;28;20065;-83
2024/01/16 07:04:41;;;;;;;11.07;1.30;;;;;;;;;;5055195;28;20467;-87
2024/01/16 07:07:07;;;;;;;3.63;1.40;;;;;;;;;;5027333;28;20044;-83
2024/01/16 07:09:33;;;;;;;4.07;1.35;;;;;;;;;;5027550;28;20037;-84
2024/01/16 07:11:59;;;;;;;6.30;1.33;;;;;;;;;;5027754;28;20563;-86
2024/01/16 07:14:26;;;;;;;7.05;1.60;;;;;;;;;;5032246;28;20489;-85
2024/01/16 07:16:52;;;;;;;8.23;1.77;;;;;;;;;;5047302;28;20149;-85
2024/01/16 07:19:18;;;;;;;6.47;1.70;;;;;;;;;;5036045;28;20384;-83
2024/01/16 07:21:44;;;;;;;5.03;1.25;;;;;;;;;;5044055;28;20048;-83
2024/01/16 07:24:10;;;;;;;13.57;2.65;;;;;;;;;;5012181;28;20042;-85
2024/01/16 07:26:36;;;;;;;8.27;2.08;;;;;;;;;;5013862;28;20767;-86
2024/01/16 07:29:03;;;;;;;3.40;1.58;;;;;;;;;;5043768;28;20045;-84
2024/01/16 07:31:29;;;;;;;7.82;2.20;;;;;;;;;;5028148;28;20049;-86
2024/01/16 07:33:55;;;;;;;6.68;2.08;;;;;;;;;;5039401;28;20040;-84
2024/01/16 07:36:21;;;;;;;3.30;1.65;;;;;;;;;;5023602;28;20093;-83
2024/01/16 07:38:47;;;;;;;6.82;2.08;;;;;;;;;;5031174;28;20455;-87
2024/01/16 07:41:13;;;;;;;7.32;2.00;;;;;;;;;;5005843;28;20046;-84
2024/01/16 07:43:39;;;;;;;6.07;1.88;;;;;;;;;;5023458;28;20049;-85
2024/01/16 07:46:05;;;;;;;5.70;2.45;;;;;;;;;;5027955;28;20045;-84
2024/01/16 07:48:31;;;;;;;7.55;2.42;;;;;;;;;;5026923;28;20074;-86
2024/01/16 07:50:57;;;;;;;10.05;3.20;;;;;;;;;;5042936;28;20040;-87
2024/01/16 07:53:27;;;;;;;8.77;2.17;;;;;;;;;;5026672;28;20052;-85
2024/01/16 07:55:54;;;;;;;7.70;2.53;;;;;;;;;;5052751;28;20423;-84
2024/01/16 07:58:20;;;;;;;5.10;2.50;;;;;;;;;;5023990;28;20481;-85
2024/01/16 08:00:46;;;;;;;8.10;2.53;;;;;;;;;;5026146;28;20076;-85
2024/01/16 08:03:14;;;;;;;8.02;2.75;;;;;;;;;;5017681;28;20141;-86
2024/01/16 08:05:40;;;;;;;9.95;3.33;;;;;;;;;;5031681;28;20029;-83
2024/01/16 08:08:11;;;;;;;5.57;3.35;;;;;;;;;;5025804;28;20078;-86
2024/01/16 08:10:37;;;;;;;9.15;2.88;;;;;;;;;;5029607;28;20048;-86
2024/01/16 08:13:04;;;;;;;5.75;2.83;;;;;;;;;;5037709;28;20049;-85
2024/01/16 08:15:30;;;;;;;5.68;3.05;;;;;;;;;;5026398;28;20049;-84
2024/01/16 08:17:56;;;;;;;10.20;3.22;;;;;;;;;;5010171;28;20049;-85
2024/01/16 08:20:22;;;;;;;11.80;3.53;;;;;;;;;;5035519;28;20048;-86
2024/01/16 08:22:50;;;;;;;9.70;3.25;;;;;;;;;;5031304;28;20071;-86
2024/01/16 08:25:16;;;;;;;5.32;3.35;;;;;;;;;;5049593;28;20044;-87
2024/01/16 08:27:43;;;;;;;11.07;4.38;;;;;;;;;;5041391;28;20036;-84
2024/01/16 08:30:11;;;;;;;6.90;4.05;;;;;;;;;;5049917;28;20044;-84
2024/01/16 08:32:37;;;;;;;5.82;3.05;;;;;;;;;;5032147;28;20060;-86
2024/01/16 08:35:05;;;;;;;7.38;3.30;;;;;;;;;;5025896;28;20060;-85
2024/01/16 08:37:31;;;;;;;7.72;3.78;;;;;;;;;;5009738;28;20566;-83
2024/01/16 08:39:57;;;;;;;8.40;3.03;;;;;;;;;;5022110;28;20647;-85
2024/01/16 08:42:23;;;;;;;7.10;3.53;;;;;;;;;;5021517;28;20392;-84
2024/01/16 08:44:49;;;;;;;6.32;2.95;;;;;;;;;;5036208;28;20048;-85
2024/01/16 08:47:15;;;;;;;6.82;2.97;;;;;;;;;;5027907;28;20036;-85
2024/01/16 08:49:41;;;;;;;10.02;2.97;;;;;;;;;;5028422;28;20829;-85
2024/01/16 08:52:07;;;;;;;5.75;2.53;;;;;;;;;;5021504;28;20060;-84
2024/01/16 08:54:33;;;;;;;4.53;2.10;;;;;;;;;;5041967;28;20494;-86
2024/01/16 08:56:59;;;;;;;5.07;2.50;;;;;;;;;;5016858;28;20047;-87
2024/01/16 08:59:26;;;;;;;7.65;1.90;;;;;;;;;;5051796;28;20037;-84
2024/01/16 09:01:52;;;;;;;6.38;2.25;;;;;;;;;;5025315;28;20541;-86
2024/01/16 09:04:18;;;;;;;5.57;2.53;;;;;;;;;;5045136;28;20139;-85
2024/01/16 09:06:45;;;;;;;7.93;2.58;;;;;;;;;;5027244;28;20132;-85
2024/01/16 09:09:12;;;;;;;10.38;2.20;;;;;;;;;;5038067;28;20068;-84
2024/01/16 09:11:38;;;;;;;5.72;2.08;;;;;;;;;;5028029;28;20072;-86
2024/01/16 09:14:04;;;;;;;4.28;1.92;;;;;;;;;;5030281;28;20080;-84
2024/01/16 09:16:30;;;;;;;6.43;1.90;;;;;;;;;;5031349;28;20066;-84
2024/01/16 09:18:56;;;;;;;7.03;2.13;;;;;;;;;;5028908;28;20514;-84
2024/01/16 09:21:22;;;;;;;5.10;2.05;;;;;;;;;;5056506;28;20056;-86
2024/01/16 09:23:48;;;;;;;7.70;2.40;;;;;;;;;;5016828;28;20055;-87
2024/01/16 09:26:14;;;;;;;8.80;2.35;;;;;;;;;;5030613;28;20049;-85
2024/01/16 09:28:40;;;;;;;6.90;2.40;;;;;;;;;;5035144;28;20040;-84
2024/01/16 09:31:07;;;;;;;7.15;2.65;;;;;;;;;;5021756;28;20503;-84
2024/01/16 09:33:34;;;;;;;10.65;3.20;;;;;;;;;;5035746;28;20036;-86
2024/01/16 09:36:00;;;;;;;8.02;4.25;;;;;;;;;;5030618;28;20041;-86
2024/01/16 09:38:26;;;;;;;7.75;3.75;;;;;;;;;;5038294;28;20060;-84
2024/01/16 09:40:56;;;;;;;7.60;3.95;;;;;;;;;;5023732;28;20041;-84
2024/01/16 09:43:22;;;;;;;10.23;4.55;;;;;;;;;;5025876;28;20053;-85
2024/01/16 09:45:49;;;;;;;8.88;5.03;;;;;;;;;;5021253;28;20091;-88
2024/01/16 09:48:15;;;;;;;13.60;4.95;;;;;;;;;;5030696;28;20124;-85
2024/01/16 09:50:41;;;;;;;8.88;4.90;;;;;;;;;;5017802;28;20048;-85
2024/01/16 09:53:08;;;;;;;11.00;5.00;;;;;;;;;;5022913;28;20090;-84
2024/01/16 09:55:33;;;;;;;8.52;5.38;;;;;;;;;;5021826;28;20064;-87
2024/01/16 09:58:00;;;;;;;11.82;5.80;;;;;;;;;;5023213;28;20052;-86
2024/01/16 10:00:26;;;;;;;10.90;5.10;;;;;;;;;;5026730;28;20086;-85
2024/01/16 10:02:53;;;;;;;13.32;5.25;;;;;;;;;;5029365;28;20120;-85
2024/01/16 10:05:19;;;;;;;8.40;5.68;;;;;;;;;;5029484;28;20643;-87
2024/01/16 10:07:47;;;;;;;10.05;5.15;;;;;;;;;;5047748;28;20040;-84
2024/01/16 10:10:14;;;;;;;9.85;5.43;;;;;;;;;;5044540;28;20089;-85
2024/01/16 10:12:40;;;;;;;9.38;4.65;;;;;;;;;;5044221;28;20052;-86
2024/01/16 10:15:10;;;;;;;11.90;5.57;;;;;;;;;;5045941;28;20161;-84
2024/01/16 10:17:37;;;;;;;9.85;4.22;;;;;;;;;;5050416;28;20075;-85
2024/01/16 10:20:04;;;;;;;8.35;3.78;;;;;;;;;;5025847;28;20593;-85
2024/01/16 10:22:30;;;;;;;6.65;2.90;;;;;;;;;;5033220;28;20041;-87
2024/01/16 10:25:16;;;;;;;6.25;3.10;;;;;;;;;;5027816;28;20094;-85
2024/01/16 10:27:42;;;;;;;5.18;2.28;;;;;;;;;;5027244;28;20052;-84
2024/01/16 10:30:10;;;;;;;6.05;2.40;;;;;;;;;;5024425;28;20045;-88
2024/01/16 10:32:43;;;;;;;8.20;1.98;;;;;;;;;;5032068;28;20047;-85
2024/01/16 10:35:10;;;;;;;4.75;1.83;;;;;;;;;;5029080;28;20040;-85
2024/01/16 10:37:43;;;;;;;3.83;1.58;;;;;;;;;;5027199;28;20123;-87
2024/01/16 10:40:09;;;;;;;6.85;1.60;;;;;;;;;;5025686;28;20155;-87
2024/01/16 10:42:35;;;;;;;6.35;1.73;;;;;;;;;;5043425;28;20041;-87
2024/01/16 10:45:01;;;;;;;2.63;1.38;;;;;;;;;;5019850;28;20040;-85
2024/01/16 10:47:28;;;;;;;2.78;1.33;;;;;;;;;;5045692;28;20076;-85
2024/01/16 10:49:54;;;;;;;4.45;1.40;;;;;;;;;;5043620;28;20041;-85
2024/01/16 10:52:26;;;;;;;1.98;1.10;;;;;;;;;;5009832;28;20084;-89
2024/01/16 10:54:52;;;;;;;6.53;1.58;;;;;;;;;;5041368;28;20053;-85
2024/01/16 10:57:19;;;;;;;3.70;1.50;;;;;;;;;;5027409;28;20098;-86
2024/01/16 11:00:04;;;;;;;6.38;1.83;;;;;;;;;;5050372;28;20151;-85
2024/01/16 11:02:36;;;;;;;3.35;2.25;;;;;;;;;;5038969;28;20807;-88
2024/01/16 11:05:03;;;;;;;4.45;1.25;;;;;;;;;;5049852;28;20075;-86
2024/01/16 11:07:30;;;;;;;5.63;1.80;;;;;;;;;;5050219;28;20044;-85
2024/01/16 11:09:56;;;;;;;3.30;1.33;;;;;;;;;;5027334;28;20380;-88
2024/01/16 11:12:22;;;;;;;6.60;1.65;;;;;;;;;;5029846;28;20044;-85
2024/01/16 11:14:51;;;;;;;4.22;1.77;;;;;;;;;;5034257;28;20109;-85
2024/01/16 11:17:19;;;;;;;3.88;1.70;;;;;;;;;;5034954;28;20044;-87
2024/01/16 11:19:45;;;;;;;7.97;1.88;;;;;;;;;;5030195;28;20049;-86
2024/01/16 11:22:12;;;;;;;5.22;1.75;;;;;;;;;;5016660;28;20057;-85
2024/01/16 11:24:38;;;;;;;3.45;1.50;;;;;;;;;;5031442;28;20041;-84
2024/01/16 11:27:05;;;;;;;3.30;1.70;;;;;;;;;;5035257;28;20137;-85
2024/01/16 11:29:31;;;;;;;4.72;1.95;;;;;;;;;;5043561;28;20051;-88
2024/01/16 11:31:58;;;;;;;6.68;1.70;;;;;;;;;;5032127;28;20053;-85
2024/01/16 11:34:43;;;;;;;3.78;1.88;;;;;;;;;;5028953;28;20077;-85
2024/01/16 11:37:13;;;;;;;3.30;1.67;;;;;;;;;;5040844;28;20088;-85
2024/01/16 11:39:42;;;;;;;4.88;2.10;;;;;;;;;;5030302;28;20510;-86
2024/01/16 11:42:09;;;;;;;7.03;2.00;;;;;;;;;;5022608;28;20157;-84
2024/01/16 11:44:42;;;;;;;6.43;1.80;;;;;;;;;;5025999;28;20448;-85
2024/01/16 11:47:08;;;;;;;5.93;2.30;;;;;;;;;;5039609;28;20052;-86
2024/01/16 11:49:35;;;;;;;6.63;2.20;;;;;;;;;;5043481;28;20045;-84
2024/01/16 11:52:02;;;;;;;7.95;2.65;;;;;;;;;;5037677;28;20148;-88
2024/01/16 11:54:28;;;;;;;7.93;2.55;;;;;;;;;;5029394;28;20080;-86
2024/01/16 11:57:14;;;;;;;6.13;2.35;;;;;;;;;;5051466;28;20065;-84
2024/01/16 11:59:48;;;;;;;3.97;2.50;;;;;;;;;;5013519;28;20581;-86
2024/01/16 12:02:38;;;;;;;10.52;3.55;;;;;;;;;;5019111;28;20076;-85
2024/01/16 12:05:06;;;;;;;4.43;2.60;;;;;;;;;;5029845;28;20098;-85
2024/01/16 12:07:43;;;;;;;5.63;2.88;;;;;;;;;;5026112;28;20051;-85
2024/01/16 12:10:09;;;;;;;8.43;2.88;;;;;;;;;;5045166;28;20044;-87
2024/01/16 12:12:35;;;;;;;5.03;2.55;;;;;;;;;;5026452;28;20123;-86
2024/01/16 12:15:01;;;;;;;6.72;3.38;;;;;;;;;;5041842;28;20048;-86
2024/01/16 12:17:27;;;;;;;5.55;2.85;;;;;;;;;;5019005;28;20141;-86
2024/01/16 12:19:53;;;;;;;7.28;3.42;;;;;;;;;;5026364;28;20045;-90
2024/01/16 12:22:22;;;;;;;9.07;3.28;;;;;;;;;;5035112;28;20052;-85
2024/01/16 12:24:48;;;;;;;8.65;3.85;;;;;;;;;;5022617;28;20041;-86
2024/01/16 12:27:15;;;;;;;11.57;3.83;;;;;;;;;;5017848;28;20084;-85
2024/01/16 12:29:42;;;;;;;10.27;3.67;;;;;;;;;;5044240;28;20046;-85
2024/01/16 12:32:11;;;;;;;6.32;3.75;;;;;;;;;;5031881;28;20044;-86
2024/01/16 12:35:04;;;;;;;8.60;3.45;;;2.60;99.90;;;;;;5037902;28;20037;-89
2024/01/16 12:37:30;;;;;;;12.80;3.92;;;;;;;;;;5039995;28;20376;-85
2024/01/16 12:39:57;;;;;;;10.52;3.70;;;;;;;;;;5040773;28;20045;-85
2024/01/16 12:42:24;;;;;;;8.23;3.45;;;;;;;;;;5028238;28;20043;-85
2024/01/16 12:44:50;;;;;;;9.68;3.63;;;;;;;;;;5027671;28;20045;-86
2024/01/16 12:47:19;;;;;;;10.60;4.50;;;;;;;;;;5030220;28;20632;-86
2024/01/16 12:49:45;;;;;;;7.40;3.33;;;;;;;;;;5045219;28;20502;-86
2024/01/16 12:52:21;;;;;;;5.93;3.70;;;;;;;;;;5036906;28;20555;-85
2024/01/16 12:54:49;;;;;;;8.85;4.03;;;;;;;;;;5023230;28;20044;-84
2024/01/16 12:57:19;;;;;;;11.95;3.97;;;;;;;;;;5030937;28;20090;-85
2024/01/16 12:59:45;;;;;;;8.18;4.57;;;;;;;;;;5019150;28;20044;-85
2024/01/16 13:02:21;;;;;;;9.75;4.13;;;;;;;;;;5026212;28;20052;-85
2024/01/16 13:04:47;;;;;;;9.25;4.35;;;;;;;;;;5040760;28;20048;-86
2024/01/16 13:07:17;;;;;;;10.52;4.47;;;;;;;;;;5039816;28;20502;-86
2024/01/16 13:09:44;;;;;;;8.70;4.55;;;;;;;;;;5036844;28;20375;-86
2024/01/16 13:12:11;;;;;;;10.55;4.78;;;;;;;;;;5022610;28;20403;-85
2024/01/16 13:14:37;;;;;;;8.68;4.53;;;;;;;;;;5038492;28;20041;-85
2024/01/16 13:17:05;;;;;;;7.47;3.88;;;;;;;;;;5022209;28;20127;-87
2024/01/16 13:19:33;;;;;;;12.95;5.63;;;;;;;;;;5033295;28;20116;-85
2024/01/16 13:21:59;;;;;;;10.65;3.40;;;;;;;;;;5037795;28;20049;-85
2024/01/16 13:24:25;;;;;;;9.25;4.13;;;;;;;;;;5039713;28;20599;-86
2024/01/16 13:26:51;;;;;;;9.25;3.80;;;;;;;;;;5041859;28;20034;-85
2024/01/16 13:29:17;;;;;;;9.65;4.30;;;;;;;;;;5025606;28;20122;-85
2024/01/16 13:31:43;;;;;;;10.70;3.65;;;;;;;;;;5041117;28;20144;-85
2024/01/16 13:34:09;;;;;;;13.88;4.40;;;;;;;;;;5011760;28;20136;-86
2024/01/16 13:36:36;;;;;;;12.20;3.47;;;;;;;;;;5021070;28;20515;-85
2024/01/16 13:39:02;;;;;;;8.02;3.20;;;;;;;;;;5024645;28;20053;-84
2024/01/16 13:41:29;;;;;;;7.88;3.38;;;;;;;;;;5028527;28;20140;-86
2024/01/16 13:43:55;;;;;;;13.98;3.50;;;;;;;;;;5045770;28;20045;-84
2024/01/16 13:46:22;;;;;;;9.25;3.30;;;;;;;;;;5021358;28;20041;-84
2024/01/16 13:48:48;;;;;;;6.03;2.58;;;;;;;;;;5028067;28;20403;-84
2024/01/16 13:51:15;;;;;;;6.82;3.00;;;;;;;;;;5023613;28;20232;-88
2024/01/16 13:53:41;;;;;;;8.23;2.80;;;;;;;;;;5016798;28;20044;-85
2024/01/16 13:56:08;;;;;;;6.75;2.63;;;;;;;;;;5044187;28;20051;-85
2024/01/16 13:58:34;;;;;;;7.00;2.15;;;;;;;;;;5027256;28;20044;-84
2024/01/16 14:01:01;;;;;;;5.30;2.33;;;;;;;;;;5015919;28;20045;-86
2024/01/16 14:03:27;;;;;;;5.45;2.30;;;;;;;;;;5033578;28;20041;-84
2024/01/16 14:05:53;;;;;;;6.60;2.40;;;;;;;;;;5026710;28;20065;-85
2024/01/16 14:08:19;;;;;;;7.30;2.50;;;;;;;;;;5044798;28;20086;-84
2024/01/16 14:10:45;;;;;;;6.03;2.63;;;;;;;;;;5034931;28;20042;-84
2024/01/16 14:13:11;;;;;;;7.03;2.33;;;;;;;;;;5052633;28;20068;-83
2024/01/16 14:15:37;;;;;;;10.85;2.42;;;;;;;;;;5032782;28;20103;-84
2024/01/16 14:18:03;;;;;;;6.97;2.42;;;;;;;;;;5055755;28;20048;-86
2024/01/16 14:20:29;;;;;;;6.75;2.25;;;;;;;;;;5045547;28;20079;-83
2024/01/16 14:22:55;;;;;;;8.95;3.08;;;;;;;;;;5029086;28;20053;-86
2024/01/16 14:25:22;;;;;;;3.30;1.63;;;;;;;;;;5034883;28;20041;-85
2024/01/16 14:27:58;;;;;;;9.23;2.28;;;;;;;;;;5053220;28;20044;-83
2024/01/16 14:30:25;;;;;;;7.38;3.25;;;;;;;;;;5028574;28;20041;-84
2024/01/16 14:32:51;;;;;;;3.67;1.95;;;;;;;;;;5054946;28;20047;-85
2024/01/16 14:35:19;;;;;;;6.18;2.22;;;;;;;;;;5038049;28;20036;-84
2024/01/16 14:37:45;;;;;;;5.03;2.20;;;;;;;;;;5051271;28;20056;-85